createdAt,value
2018-02-17T00:00:10.414Z,39.73
2018-02-17T00:02:36.193Z,40.05
2018-02-17T00:05:02.091Z,39.72
2018-02-17T00:07:27.878Z,39.81
2018-02-17T00:09:53.699Z,40.21
2018-02-17T00:12:19.487Z,40.35
2018-02-17T00:14:45.281Z,40.09
2018-02-17T00:17:11.119Z,40.13
2018-02-17T00:19:36.904Z,39.97
2018-02-17T00:22:03.718Z,39.97
2018-02-17T00:24:29.529Z,39.98
2018-02-17T00:26:55.373Z,40.28
2018-02-17T00:29:21.188Z,40.05
2018-02-17T00:31:47.955Z,40.09
2018-02-17T00:34:13.785Z,40.37
2018-02-17T00:36:39.581Z,40.57
2018-02-17T00:39:05.384Z,40.21
2018-02-17T00:41:31.170Z,40.39
2018-02-17T00:43:57.945Z,40.27
2018-02-17T00:46:24.807Z,40.15
2018-02-17T00:48:51.592Z,40.16
2018-02-17T00:51:18.382Z,40.25
2018-02-17T00:53:44.286Z,40.55
2018-02-17T00:56:11.094Z,40.25
2018-02-17T00:58:36.882Z,40.78
2018-02-17T01:01:03.629Z,40.51
2018-02-17T01:03:30.425Z,40.37
2018-02-17T01:05:56.211Z,40.35
2018-02-17T01:08:22.978Z,40.54
2018-02-17T01:10:49.739Z,40.70
2018-02-17T01:13:15.529Z,40.47
2018-02-17T01:15:41.321Z,40.47
2018-02-17T01:18:07.141Z,40.65
2018-02-17T01:20:32.958Z,40.62
2018-02-17T01:22:58.754Z,40.49
2018-02-17T01:25:25.426Z,40.89
2018-02-17T01:27:51.216Z,41.06
2018-02-17T01:30:17.898Z,40.53
2018-02-17T01:32:43.686Z,40.54
2018-02-17T01:35:09.509Z,40.72
2018-02-17T01:37:36.111Z,40.54
2018-02-17T01:40:01.905Z,40.54
2018-02-17T01:42:28.563Z,41.35
2018-02-17T01:44:54.361Z,40.81
2018-02-17T01:47:21.197Z,40.66
2018-02-17T01:49:46.976Z,40.82
2018-02-17T01:52:13.084Z,40.75
2018-02-17T01:54:39.750Z,41.25
2018-02-17T01:57:06.457Z,41.30
2018-02-17T01:59:32.295Z,41.43
2018-02-17T02:01:58.894Z,41.00
2018-02-17T02:04:25.636Z,41.52
2018-02-17T02:06:51.420Z,41.13
2018-02-17T02:09:17.246Z,40.99
2018-02-17T02:11:43.059Z,40.80
2018-02-17T02:14:09.674Z,40.96
2018-02-17T02:16:35.474Z,41.04
2018-02-17T02:19:01.256Z,40.81
2018-02-17T02:21:28.083Z,41.31
2018-02-17T02:23:53.877Z,40.79
2018-02-17T02:26:19.662Z,41.04
2018-02-17T02:28:45.459Z,40.96
2018-02-17T02:31:11.252Z,40.58
2018-02-17T02:33:37.034Z,40.92
2018-02-17T02:36:02.814Z,41.02
2018-02-17T02:38:28.642Z,40.76
2018-02-17T02:40:54.428Z,41.43
2018-02-17T02:43:20.250Z,41.25
2018-02-17T02:45:46.896Z,41.17
2018-02-17T02:48:12.718Z,41.00
2018-02-17T02:50:38.498Z,41.28
2018-02-17T02:53:04.290Z,40.86
2018-02-17T02:55:30.123Z,40.76
2018-02-17T02:57:55.900Z,40.96
2018-02-17T03:00:21.686Z,41.10
2018-02-17T03:02:47.470Z,41.05
2018-02-17T03:05:13.256Z,41.06
2018-02-17T03:07:39.064Z,41.39
2018-02-17T03:10:04.859Z,40.88
2018-02-17T03:12:30.645Z,41.13
2018-02-17T03:14:56.536Z,40.86
2018-02-17T03:17:22.340Z,40.90
2018-02-17T03:19:48.125Z,41.15
2018-02-17T03:22:13.905Z,41.23
2018-02-17T03:24:39.697Z,41.33
2018-02-17T03:27:05.495Z,41.09
2018-02-17T03:29:31.314Z,41.39
2018-02-17T03:31:57.098Z,41.27
2018-02-17T03:34:22.918Z,41.88
2018-02-17T03:36:49.670Z,41.06
2018-02-17T03:39:15.451Z,41.42
2018-02-17T03:41:41.282Z,41.12
2018-02-17T03:44:07.057Z,41.88
2018-02-17T03:46:33.691Z,41.15
2018-02-17T03:49:00.566Z,41.54
2018-02-17T03:51:27.324Z,41.09
2018-02-17T03:53:53.120Z,41.28
2018-02-17T03:56:19.735Z,41.30
2018-02-17T03:58:45.517Z,41.19
2018-02-17T04:01:12.315Z,40.95
2018-02-17T04:03:39.106Z,41.00
2018-02-17T04:06:04.930Z,41.32
2018-02-17T04:08:31.723Z,40.88
2018-02-17T04:10:57.513Z,41.43
2018-02-17T04:13:24.313Z,41.54
2018-02-17T04:15:50.097Z,42.36
2018-02-17T04:18:15.957Z,41.33
2018-02-17T04:20:41.747Z,41.52
2018-02-17T04:23:07.561Z,41.71
2018-02-17T04:25:33.355Z,41.48
2018-02-17T04:28:00.106Z,41.49
2018-02-17T04:30:25.902Z,41.31
2018-02-17T04:32:52.541Z,40.94
2018-02-17T04:35:18.394Z,41.03
2018-02-17T04:37:45.162Z,41.39
2018-02-17T04:40:17.125Z,41.15
2018-02-17T04:42:58.745Z,41.18
2018-02-17T04:45:27.526Z,41.97
2018-02-17T04:47:59.369Z,41.46
2018-02-17T04:50:31.161Z,41.81
2018-02-17T04:53:03.127Z,41.37
2018-02-17T04:58:39.825Z,41.64
2018-02-17T05:01:11.522Z,42.39
2018-02-17T05:03:53.230Z,42.28
2018-02-17T05:06:22.833Z,41.76
2018-02-17T05:11:46.333Z,41.82
2018-02-17T05:14:14.078Z,41.55
2018-02-17T05:16:42.611Z,41.25
2018-02-17T05:19:09.429Z,41.69
2018-02-17T05:21:37.203Z,41.57
2018-02-17T05:24:03.949Z,41.57
2018-02-17T05:26:31.770Z,42.10
2018-02-17T05:29:07.574Z,41.73
2018-02-17T05:31:34.266Z,41.80
2018-02-17T05:34:06.265Z,41.44
2018-02-17T05:36:35.179Z,41.35
2018-02-17T05:39:03.910Z,41.14
2018-02-17T05:44:36.497Z,42.35
2018-02-17T05:47:07.103Z,41.10
2018-02-17T05:49:35.779Z,41.31
2018-02-17T05:52:01.641Z,41.22
2018-02-17T05:54:28.321Z,41.05
2018-02-17T05:56:55.061Z,41.49
2018-02-17T05:59:20.841Z,41.52
2018-02-17T06:01:46.661Z,41.48
2018-02-17T06:04:12.474Z,41.25
2018-02-17T06:06:39.145Z,41.14
2018-02-17T06:09:04.986Z,40.78
2018-02-17T06:11:31.791Z,41.05
2018-02-17T06:13:57.578Z,41.00
2018-02-17T06:16:24.242Z,40.59
2018-02-17T06:18:50.237Z,40.91
2018-02-17T06:21:16.046Z,40.85
2018-02-17T06:23:42.662Z,40.74
2018-02-17T06:26:09.461Z,41.34
2018-02-17T06:28:35.246Z,40.70
2018-02-17T06:31:01.878Z,40.85
2018-02-17T06:33:28.637Z,40.84
2018-02-17T06:35:54.636Z,41.20
2018-02-17T06:38:21.509Z,40.90
2018-02-17T06:40:47.289Z,41.20
2018-02-17T06:43:13.925Z,41.28
2018-02-17T06:45:40.601Z,41.11
2018-02-17T06:48:06.418Z,41.67
2018-02-17T06:50:32.189Z,41.38
2018-02-17T06:52:58.826Z,40.77
2018-02-17T06:55:25.563Z,40.85
2018-02-17T06:57:51.378Z,41.59
2018-02-17T07:00:17.199Z,41.83
2018-02-17T07:02:43.024Z,42.02
2018-02-17T07:05:08.867Z,41.82
2018-02-17T07:07:34.746Z,41.99
2018-02-17T07:10:02.165Z,41.48
2018-02-17T07:12:28.010Z,40.98
2018-02-17T07:14:53.831Z,40.38
2018-02-17T07:17:19.645Z,39.97
2018-02-17T07:19:45.470Z,40.58
2018-02-17T07:22:12.159Z,40.32
2018-02-17T07:24:39.004Z,40.14
2018-02-17T07:27:05.694Z,40.39
2018-02-17T07:29:31.505Z,40.42
2018-02-17T07:31:58.263Z,40.42
2018-02-17T07:34:24.236Z,40.29
2018-02-17T07:36:50.006Z,40.36
2018-02-17T07:39:15.784Z,40.33
2018-02-17T07:41:41.554Z,40.52
2018-02-17T07:44:07.372Z,40.35
2018-02-17T07:46:34.086Z,41.09
2018-02-17T07:48:59.861Z,40.51
2018-02-17T07:51:25.649Z,40.70
2018-02-17T07:53:51.437Z,41.34
2018-02-17T07:56:17.240Z,41.23
2018-02-17T07:58:43.025Z,41.56
2018-02-17T08:01:08.842Z,41.48
2018-02-17T08:03:34.645Z,41.04
2018-02-17T08:06:00.422Z,40.73
2018-02-17T08:08:26.254Z,40.26
2018-02-17T08:10:52.282Z,40.75
2018-02-17T08:13:18.065Z,41.36
2018-02-17T08:15:43.842Z,40.50
2018-02-17T08:18:09.662Z,40.77
2018-02-17T08:20:36.019Z,40.25
2018-02-17T08:23:02.712Z,41.06
2018-02-17T08:25:29.421Z,41.12
2018-02-17T08:27:55.270Z,41.42
2018-02-17T08:30:21.134Z,42.17
2018-02-17T08:32:47.770Z,41.02
2018-02-17T08:35:13.598Z,42.13
2018-02-17T08:37:40.423Z,40.43
2018-02-17T08:40:07.227Z,41.58
2018-02-17T08:42:34.003Z,42.04
2018-02-17T08:45:00.802Z,42.26
2018-02-17T08:47:27.629Z,42.15
2018-02-17T08:49:54.373Z,41.67
2018-02-17T08:52:21.070Z,41.21
2018-02-17T08:54:47.776Z,41.46
2018-02-17T08:57:14.597Z,41.36
2018-02-17T08:59:41.256Z,41.96
2018-02-17T09:02:08.085Z,41.38
2018-02-17T09:04:34.889Z,41.37
2018-02-17T09:07:00.673Z,40.98
2018-02-17T09:09:26.631Z,40.78
2018-02-17T09:11:52.427Z,42.09
2018-02-17T09:14:19.187Z,41.31
2018-02-17T09:16:44.969Z,41.13
2018-02-17T09:19:10.750Z,40.98
2018-02-17T09:21:36.582Z,40.67
2018-02-17T09:24:02.406Z,40.74
2018-02-17T09:26:28.234Z,40.89
2018-02-17T09:28:54.025Z,42.75
2018-02-17T09:31:19.842Z,41.25
2018-02-17T09:33:45.626Z,42.07
2018-02-17T09:36:12.372Z,41.32
2018-02-17T09:38:39.126Z,41.13
2018-02-17T09:41:04.909Z,41.31
2018-02-17T09:43:30.723Z,41.28
2018-02-17T09:45:57.318Z,40.59
2018-02-17T09:48:24.192Z,40.44
2018-02-17T09:50:50.913Z,41.19
2018-02-17T09:53:16.749Z,41.79
2018-02-17T09:55:43.367Z,41.77
2018-02-17T09:58:10.116Z,41.46
2018-02-17T10:00:35.898Z,41.82
2018-02-17T10:03:02.614Z,42.52
2018-02-17T10:05:29.358Z,41.92
2018-02-17T10:07:55.144Z,41.80
2018-02-17T10:10:21.870Z,40.94
2018-02-17T10:12:48.663Z,41.02
2018-02-17T10:15:15.402Z,40.80
2018-02-17T10:17:42.099Z,40.93
2018-02-17T10:20:07.952Z,42.13
2018-02-17T10:22:34.574Z,41.20
2018-02-17T10:25:01.409Z,41.04
2018-02-17T10:27:28.398Z,41.31
2018-02-17T10:29:54.206Z,41.01
2018-02-17T10:32:20.987Z,41.23
2018-02-17T10:34:46.764Z,41.13
2018-02-17T10:37:12.583Z,41.11
2018-02-17T10:39:39.186Z,41.85
2018-02-17T10:42:05.968Z,42.07
2018-02-17T10:44:32.737Z,42.97
2018-02-17T10:46:58.515Z,43.42
2018-02-17T10:49:24.299Z,43.75
2018-02-17T10:51:50.126Z,42.09
2018-02-17T10:54:16.743Z,40.78
2018-02-17T10:56:42.567Z,43.45
2018-02-17T10:59:09.170Z,44.00
2018-02-17T11:01:34.994Z,42.77
2018-02-17T11:04:00.786Z,41.42
2018-02-17T11:06:26.602Z,42.09
2018-02-17T11:08:52.399Z,43.85
2018-02-17T11:11:19.108Z,43.56
2018-02-17T11:13:44.897Z,42.49
2018-02-17T11:16:10.707Z,42.33
2018-02-17T11:18:36.519Z,41.59
2018-02-17T11:21:02.311Z,41.37
2018-02-17T11:23:28.107Z,42.03
2018-02-17T11:25:53.893Z,43.62
2018-02-17T11:28:20.521Z,41.42
2018-02-17T11:30:46.299Z,42.79
2018-02-17T11:33:12.121Z,41.68
2018-02-17T11:35:37.960Z,42.59
2018-02-17T11:38:03.817Z,42.48
2018-02-17T11:40:29.633Z,41.76
2018-02-17T11:42:55.414Z,40.33
2018-02-17T11:45:21.202Z,43.12
2018-02-17T11:47:46.988Z,42.64
2018-02-17T11:50:12.766Z,41.13
2018-02-17T11:52:38.565Z,40.46
2018-02-17T11:55:04.366Z,41.61
2018-02-17T11:57:30.166Z,41.41
2018-02-17T11:59:55.943Z,40.37
2018-02-17T12:02:21.762Z,40.05
2018-02-17T12:04:48.550Z,41.30
2018-02-17T12:07:14.338Z,42.67
2018-02-17T12:09:40.120Z,41.74
2018-02-17T12:12:05.943Z,42.91
2018-02-17T12:14:31.724Z,42.49
2018-02-17T12:16:58.615Z,42.50
2018-02-17T12:19:24.394Z,42.81
2018-02-17T12:21:50.254Z,42.54
2018-02-17T12:24:16.890Z,42.89
2018-02-17T12:26:42.737Z,43.77
2018-02-17T12:29:08.513Z,43.75
2018-02-17T12:31:34.335Z,43.48
2018-02-17T12:34:01.053Z,42.98
2018-02-17T12:36:27.838Z,42.53
2018-02-17T12:38:53.658Z,42.78
2018-02-17T12:41:19.434Z,44.52
2018-02-17T12:43:46.022Z,42.60
2018-02-17T12:46:12.773Z,42.00
2018-02-17T12:48:39.571Z,40.83
2018-02-17T12:51:05.358Z,41.03
2018-02-17T12:53:31.135Z,42.54
2018-02-17T12:55:57.871Z,42.55
2018-02-17T12:58:23.694Z,42.75
2018-02-17T13:00:49.520Z,43.16
2018-02-17T13:03:15.308Z,42.88
2018-02-17T13:05:41.951Z,41.87
2018-02-17T13:08:07.740Z,42.57
2018-02-17T13:10:33.526Z,42.30
2018-02-17T13:12:59.361Z,41.88
2018-02-17T13:15:26.166Z,41.35
2018-02-17T13:17:51.968Z,41.50
2018-02-17T13:20:17.841Z,41.69
2018-02-17T13:22:43.634Z,41.41
2018-02-17T13:25:09.414Z,41.54
2018-02-17T13:27:35.194Z,41.59
2018-02-17T13:30:01.136Z,41.05
2018-02-17T13:32:27.917Z,41.82
2018-02-17T13:34:54.694Z,42.17
2018-02-17T13:37:21.554Z,41.91
2018-02-17T13:39:48.327Z,42.46
2018-02-17T13:42:15.085Z,41.69
2018-02-17T13:44:40.898Z,41.97
2018-02-17T13:47:07.495Z,42.07
2018-02-17T13:49:34.119Z,41.48
2018-02-17T13:52:00.987Z,40.50
2018-02-17T13:54:26.869Z,41.70
2018-02-17T13:56:53.578Z,42.37
2018-02-17T13:59:19.350Z,41.28
2018-02-17T14:01:45.125Z,41.64
2018-02-17T14:04:11.740Z,40.96
2018-02-17T14:06:37.538Z,41.23
2018-02-17T14:09:05.740Z,43.95
2018-02-17T14:11:31.553Z,45.04
2018-02-17T14:13:58.186Z,46.26
2018-02-17T14:16:23.983Z,46.53
2018-02-17T14:18:50.690Z,45.50
2018-02-17T14:21:16.500Z,46.69
2018-02-17T14:23:42.301Z,47.23
2018-02-17T14:26:10.107Z,46.98
2018-02-17T14:28:35.943Z,47.68
2018-02-17T14:31:01.786Z,47.48
2018-02-17T14:33:27.594Z,47.72
2018-02-17T14:35:53.407Z,47.96
2018-02-17T14:38:19.246Z,47.72
2018-02-17T14:40:45.085Z,46.04
2018-02-17T14:43:10.922Z,46.51
2018-02-17T14:45:36.718Z,46.12
2018-02-17T14:48:02.641Z,47.74
2018-02-17T14:50:28.453Z,49.27
2018-02-17T14:52:54.291Z,48.90
2018-02-17T14:55:20.143Z,49.44
2018-02-17T14:57:46.013Z,49.51
2018-02-17T15:00:11.822Z,49.53
2018-02-17T15:02:37.623Z,48.24
2018-02-17T15:05:03.422Z,46.95
2018-02-17T15:07:29.231Z,46.45
2018-02-17T15:09:55.048Z,46.08
2018-02-17T15:12:20.847Z,46.33
2018-02-17T15:14:47.530Z,46.13
2018-02-17T15:17:13.882Z,46.06
2018-02-17T15:19:40.588Z,46.27
2018-02-17T15:22:06.358Z,45.99
2018-02-17T15:24:32.144Z,46.48
2018-02-17T15:26:58.893Z,46.64
2018-02-17T15:29:24.696Z,46.43
2018-02-17T15:31:52.783Z,46.57
2018-02-17T15:34:19.656Z,46.56
2018-02-17T15:36:46.438Z,46.71
2018-02-17T15:39:12.284Z,46.52
2018-02-17T15:41:38.089Z,47.18
2018-02-17T15:44:03.910Z,46.76
2018-02-17T15:46:29.702Z,46.83
2018-02-17T15:48:55.531Z,46.97
2018-02-17T15:51:22.150Z,46.99
2018-02-17T15:53:47.979Z,47.10
2018-02-17T15:56:14.490Z,47.08
2018-02-17T15:58:40.318Z,47.08
2018-02-17T16:01:07.131Z,46.89
2018-02-17T16:03:33.066Z,46.82
2018-02-17T16:05:58.860Z,46.82
2018-02-17T16:08:24.687Z,46.79
2018-02-17T16:10:50.671Z,47.04
2018-02-17T16:13:16.529Z,47.06
2018-02-17T16:15:42.389Z,47.19
2018-02-17T16:18:09.190Z,47.25
2018-02-17T16:20:34.997Z,47.19
2018-02-17T16:23:01.599Z,47.35
2018-02-17T16:25:28.401Z,47.40
2018-02-17T16:27:54.272Z,47.33
2018-02-17T16:30:21.077Z,47.32
2018-02-17T16:32:49.067Z,47.52
2018-02-17T16:35:14.902Z,47.32
2018-02-17T16:37:41.828Z,47.53
2018-02-17T16:40:08.467Z,47.63
2018-02-17T16:42:35.250Z,47.67
2018-02-17T16:45:02.033Z,47.61
2018-02-17T16:47:28.919Z,46.62
2018-02-17T16:49:55.757Z,47.38
2018-02-17T16:52:24.601Z,48.02
2018-02-17T16:54:53.512Z,47.69
2018-02-17T16:57:20.535Z,47.51
2018-02-17T17:02:37.275Z,47.54
2018-02-17T17:05:04.019Z,47.66
2018-02-17T17:07:29.841Z,47.41
2018-02-17T17:09:55.710Z,47.41
2018-02-17T17:12:21.982Z,47.49
2018-02-17T17:15:03.880Z,47.39
2018-02-17T17:29:04.025Z,47.61
2018-02-17T17:31:29.843Z,47.64
2018-02-17T17:33:56.807Z,47.54
2018-02-17T17:36:23.464Z,47.72
2018-02-17T17:38:49.266Z,47.50
2018-02-17T17:41:15.086Z,47.47
2018-02-17T17:43:41.217Z,47.57
2018-02-17T17:46:07.973Z,47.08
2018-02-17T17:48:35.886Z,47.18
2018-02-17T17:51:01.690Z,47.48
2018-02-17T17:53:27.506Z,47.36
2018-02-17T17:55:53.371Z,47.35
2018-02-17T17:58:19.187Z,47.14
2018-02-17T18:00:47.836Z,47.49
2018-02-17T18:03:13.716Z,47.39
2018-02-17T18:05:39.592Z,47.61
2018-02-17T18:08:05.393Z,47.53
2018-02-17T18:10:31.211Z,47.59
2018-02-17T18:12:58.400Z,48.03
2018-02-17T18:15:24.444Z,48.08
2018-02-17T18:17:50.348Z,47.88
2018-02-17T18:20:19.130Z,47.68
2018-02-17T18:22:45.468Z,47.82
2018-02-17T18:25:17.275Z,48.01
2018-02-17T18:27:43.865Z,48.05
2018-02-17T18:30:09.699Z,47.98
2018-02-17T18:32:35.603Z,48.03
2018-02-17T18:35:02.575Z,47.41
2018-02-17T18:37:28.843Z,47.45
2018-02-17T18:39:54.780Z,47.69
2018-02-17T18:42:21.608Z,48.06
2018-02-17T18:44:48.609Z,47.87
2018-02-17T18:47:14.516Z,48.58
2018-02-17T18:49:40.413Z,50.01
2018-02-17T18:52:07.034Z,49.47
2018-02-17T18:54:34.843Z,49.38
2018-02-17T18:57:00.658Z,48.53
2018-02-17T18:59:26.548Z,47.81
2018-02-17T19:01:52.355Z,47.27
2018-02-17T19:04:19.808Z,46.86
2018-02-17T19:06:46.655Z,46.73
2018-02-17T19:09:12.470Z,46.53
2018-02-17T19:11:38.342Z,45.89
2018-02-17T19:14:04.138Z,45.95
2018-02-17T19:16:29.939Z,45.63
2018-02-17T19:18:56.669Z,45.99
2018-02-17T19:21:22.463Z,46.31
2018-02-17T19:23:48.273Z,46.45
2018-02-17T19:26:14.081Z,46.42
2018-02-17T19:28:39.919Z,46.29
2018-02-17T19:31:05.717Z,46.29
2018-02-17T19:33:31.528Z,46.47
2018-02-17T19:35:57.327Z,46.58
2018-02-17T19:38:23.154Z,46.65
2018-02-17T19:40:48.986Z,46.57
2018-02-17T19:43:16.007Z,46.59
2018-02-17T19:45:42.710Z,46.72
2018-02-17T19:48:26.275Z,46.81
2018-02-17T19:50:53.216Z,47.23
2018-02-17T19:53:19.663Z,47.30
2018-02-17T19:56:02.043Z,47.00
2018-02-17T19:58:28.101Z,47.05
2018-02-17T20:00:54.127Z,46.77
2018-02-17T20:06:08.945Z,46.80
2018-02-17T20:08:35.698Z,46.72
2018-02-17T20:11:02.486Z,46.84
2018-02-17T20:13:28.317Z,46.72
2018-02-17T20:15:54.229Z,46.59
2018-02-17T20:18:20.078Z,46.81
2018-02-17T20:20:45.917Z,46.89
2018-02-17T20:23:11.766Z,46.94
2018-02-17T20:25:37.620Z,46.79
2018-02-17T20:28:03.483Z,46.77
2018-02-17T20:30:29.375Z,46.41
2018-02-17T20:32:55.240Z,46.69
2018-02-17T20:35:21.096Z,46.71
2018-02-17T20:37:46.945Z,46.69
2018-02-17T20:40:12.790Z,46.42
2018-02-17T20:42:39.483Z,46.82
2018-02-17T20:45:05.389Z,46.74
2018-02-17T20:47:31.237Z,47.07
2018-02-17T20:49:57.059Z,46.49
2018-02-17T20:52:23.712Z,46.98
2018-02-17T20:54:49.523Z,46.81
2018-02-17T20:57:15.475Z,47.16
2018-02-17T20:59:41.300Z,47.13
2018-02-17T21:02:08.096Z,47.23
2018-02-17T21:04:33.901Z,47.44
2018-02-17T21:07:00.628Z,47.40
2018-02-17T21:09:27.391Z,47.28
2018-02-17T21:11:53.235Z,47.03
2018-02-17T21:14:19.046Z,46.63
2018-02-17T21:16:45.809Z,46.63
2018-02-17T21:19:11.599Z,46.76
2018-02-17T21:21:37.390Z,46.65
2018-02-17T21:24:03.237Z,46.54
2018-02-17T21:26:29.844Z,46.98
2018-02-17T21:28:55.652Z,46.83
2018-02-17T21:31:22.353Z,47.29
2018-02-17T21:33:48.167Z,46.98
2018-02-17T21:36:14.945Z,46.98
2018-02-17T21:38:40.763Z,47.18
2018-02-17T21:41:06.573Z,47.22
2018-02-17T21:43:32.502Z,47.47
2018-02-17T21:45:59.252Z,47.17
2018-02-17T21:48:26.170Z,47.34
2018-02-17T21:50:52.790Z,47.27
2018-02-17T21:53:19.643Z,47.13
2018-02-17T21:55:45.651Z,47.05
2018-02-17T21:58:11.473Z,47.10
2018-02-17T22:00:38.259Z,47.32
2018-02-17T22:03:05.014Z,47.32
2018-02-17T22:05:30.866Z,47.26
2018-02-17T22:07:56.704Z,47.33
2018-02-17T22:10:23.362Z,47.17
2018-02-17T22:12:50.169Z,47.11
2018-02-17T22:15:15.970Z,47.39
2018-02-17T22:17:41.774Z,47.45
2018-02-17T22:20:07.823Z,46.98
2018-02-17T22:22:33.654Z,47.28
2018-02-17T22:24:59.466Z,47.34
2018-02-17T22:27:25.266Z,47.34
2018-02-17T22:29:52.128Z,47.46
2018-02-17T22:32:17.949Z,47.27
2018-02-17T22:34:43.786Z,47.06
2018-02-17T22:37:10.414Z,47.05
2018-02-17T22:39:36.262Z,46.98
2018-02-17T22:42:02.062Z,47.27
2018-02-17T22:44:27.863Z,47.16
2018-02-17T22:46:53.667Z,47.30
2018-02-17T22:49:19.502Z,47.34
2018-02-17T22:51:45.338Z,47.44
2018-02-17T22:54:12.118Z,47.53
2018-02-17T22:56:37.921Z,47.62
2018-02-17T22:59:03.746Z,47.48
2018-02-17T23:01:30.715Z,47.20
2018-02-17T23:03:56.510Z,46.94
2018-02-17T23:06:23.269Z,47.05
2018-02-17T23:08:49.076Z,47.28
2018-02-17T23:11:14.950Z,47.24
2018-02-17T23:13:40.742Z,47.23
2018-02-17T23:16:06.550Z,47.08
2018-02-17T23:18:32.358Z,47.30
2018-02-17T23:20:58.151Z,47.35
2018-02-17T23:23:23.998Z,47.16
2018-02-17T23:25:49.795Z,47.15
2018-02-17T23:28:15.612Z,47.21
2018-02-17T23:30:41.438Z,47.52
2018-02-17T23:33:08.147Z,47.57
2018-02-17T23:35:33.985Z,47.83
2018-02-17T23:37:59.782Z,47.53
2018-02-17T23:40:25.586Z,47.58
2018-02-17T23:42:52.253Z,47.60
2018-02-17T23:45:19.069Z,47.31
2018-02-17T23:47:45.092Z,47.49
2018-02-17T23:50:10.890Z,47.24
2018-02-17T23:52:37.662Z,47.52
2018-02-17T23:55:03.468Z,47.44
2018-02-17T23:57:29.268Z,47.55
2018-02-17T23:59:55.110Z,47.49
